Time;durP1;ratioP1;P1;durP2;ratioP2;P2;SDS_P1;SDS_P2;PMS_P1;PMS_P2;Temp;Humidity;BMP_temperature;BMP_pressure;BME280_temperature;BME280_humidity;BME280_pressure;Samples;Min_cycle;Max_cycle;Signal;HPM_P1;HPM_P2
2023/06/09 00:01:58;;;;;;;5.43;2.67;;;;;;;18.30;63.46;101461.44;5090357;28;20415;-37
2023/06/09 00:04:25;;;;;;;8.63;2.88;;;;;;;18.32;63.75;101464.72;5090470;28;20028;-37
2023/06/09 00:06:52;;;;;;;4.50;2.50;;;;;;;18.31;63.69;101465.00;5090504;28;20483;-37
2023/06/09 00:09:18;;;;;;;6.03;2.92;;;;;;;18.28;63.24;101461.69;5089625;28;20028;-36
2023/06/09 00:11:43;;;;;;;6.28;3.13;;;;;;;18.15;63.68;101459.44;5079639;28;20035;-37
2023/06/09 00:14:09;;;;;;;8.55;2.90;;;;;;;18.08;63.44;101458.84;5076880;28;20028;-37
2023/06/09 00:16:34;;;;;;;3.78;2.38;;;;;;;18.04;63.84;101459.66;5075999;28;20063;-37
2023/06/09 00:19:03;;;;;;;;;;;;;;;18.11;63.60;101463.81;5076561;28;20020;-37
2023/06/09 00:21:29;;;;;;;9.30;3.13;;;;;;;18.00;63.87;101468.38;5076172;28;20356;-37
2023/06/09 00:23:58;;;;;;;6.50;2.92;;;;;;;17.91;64.19;101467.25;5075856;28;20035;-37
2023/06/09 00:26:23;;;;;;;6.20;2.90;;;;;;;17.90;64.42;101464.78;5075787;28;20030;-37
2023/06/09 00:28:49;;;;;;;5.78;2.55;;;;;;;17.89;63.86;101465.88;5076096;28;20029;-37
2023/06/09 00:31:14;;;;;;;;;;;;;;;18.05;63.12;101455.81;5076742;28;20452;-37
2023/06/09 00:33:39;;;;;;;5.88;2.60;;;;;;;17.86;63.89;101459.03;5075924;28;19971;-37
2023/06/09 00:36:05;;;;;;;4.88;3.00;;;;;;;17.96;64.21;101452.78;5075951;28;20082;-37
2023/06/09 00:38:30;;;;;;;;;;;;;;;18.03;63.30;101467.03;5076102;28;20028;-37
2023/06/09 00:40:56;;;;;;;8.20;3.20;;;;;;;17.97;63.90;101451.69;5075897;28;19912;-37
2023/06/09 00:43:21;;;;;;;;;;;;;;;18.05;63.07;101461.28;5075984;28;20812;-36
2023/06/09 00:45:49;;;;;;;6.97;2.87;;;;;;;17.92;64.05;101459.88;5076067;28;20310;-37
2023/06/09 00:48:14;;;;;;;5.63;2.78;;;;;;;17.87;63.82;101457.13;5075467;28;20295;-37
2023/06/09 00:50:40;;;;;;;6.65;3.05;;;;;;;17.73;64.73;101443.06;5076192;28;20495;-36
2023/06/09 00:53:07;;;;;;;;;;;;;;;17.86;63.29;101448.09;5076612;28;20020;-37
2023/06/09 00:55:34;;;;;;;7.05;2.60;;;;;;;17.59;64.42;101450.88;5075840;28;20007;-36
2023/06/09 00:58:01;;;;;;;7.63;2.80;;;;;;;17.61;64.96;101443.22;5075456;28;20035;-37
2023/06/09 01:00:28;;;;;;;6.93;2.78;;;;;;;17.49;65.00;101457.09;5075070;28;20380;-37
2023/06/09 01:03:00;;;;;;;5.60;2.90;;;;;;;17.50;64.71;101441.50;5075340;28;20111;-37
2023/06/09 01:05:36;;;;;;;6.38;3.08;;;;;;;17.38;65.35;101441.72;5075132;28;20028;-37
2023/06/09 01:08:14;;;;;;;6.13;2.83;;;;;;;17.44;65.71;101448.88;5075063;28;20081;-37
2023/06/09 01:10:48;;;;;;;7.20;2.55;;;;;;;17.46;65.79;101445.84;5075266;28;20070;-37
2023/06/09 01:13:19;;;;;;;7.45;3.10;;;;;;;17.43;65.96;101444.50;5075197;28;20052;-37
2023/06/09 01:15:49;;;;;;;8.07;2.97;;;;;;;17.33;66.20;101441.69;5075731;28;20044;-37
2023/06/09 01:18:15;;;;;;;6.43;2.60;;;;;;;17.27;66.67;101447.34;5075407;28;20035;-37
2023/06/09 01:20:45;;;;;;;3.65;2.25;;;;;;;17.37;66.05;101439.22;5075804;28;20104;-37
2023/06/09 01:23:39;;;;;;;7.45;3.08;;;;;;;17.33;66.03;101444.41;5074308;28;20043;-37
2023/06/09 01:26:06;;;;;;;5.40;2.80;;;;;;;17.29;66.81;101440.56;5073197;28;20070;-37
2023/06/09 01:28:33;;;;;;;5.65;2.90;;;;;;;17.17;67.00;101442.63;5075448;28;20036;-37
2023/06/09 01:31:00;;;;;;;6.65;3.17;;;;;;;17.15;67.58;101445.63;5075150;28;20032;-37
2023/06/09 01:33:25;;;;;;;7.40;2.95;;;;;;;17.13;67.10;101438.75;5075028;28;20055;-37
2023/06/09 01:35:53;;;;;;;7.43;2.65;;;;;;;17.20;67.45;101437.47;5075291;28;20056;-37
2023/06/09 01:38:20;;;;;;;6.68;3.10;;;;;;;17.15;68.28;101434.69;5074641;28;20052;-37
2023/06/09 01:40:47;;;;;;;6.43;3.28;;;;;;;17.14;67.95;101434.97;5074553;28;20036;-37
2023/06/09 01:43:12;;;;;;;6.47;2.75;;;;;;;17.01;67.68;101438.13;5074602;28;20370;-37
2023/06/09 01:45:38;;;;;;;8.02;2.97;;;;;;;17.09;67.95;101427.53;5074256;28;20035;-37
2023/06/09 01:48:14;;;;;;;;;;;;;;;17.21;66.51;101436.38;5074867;28;20029;-37
2023/06/09 01:50:42;;;;;;;4.93;2.60;;;;;;;17.06;67.96;101424.50;5074739;28;19953;-37
2023/06/09 01:53:14;;;;;;;7.15;3.20;;;;;;;16.95;68.08;101429.88;5074441;28;20103;-38
2023/06/09 01:55:49;;;;;;;6.65;3.42;;;;;;;16.88;69.05;101431.16;5075155;28;20479;-37
2023/06/09 01:58:19;;;;;;;7.57;3.10;;;;;;;16.89;68.82;101427.38;5074630;28;20062;-37
2023/06/09 02:00:47;;;;;;;7.95;3.30;;;;;;;16.81;69.60;101428.66;5075175;28;20094;-37
2023/06/09 02:03:17;;;;;;;10.35;3.45;;;;;;;16.83;69.81;101426.47;5074156;28;20028;-37
2023/06/09 02:05:44;;;;;;;5.93;2.78;;;;;;;16.73;69.57;101418.19;5074716;28;20024;-37
2023/06/09 02:08:10;;;;;;;7.90;3.50;;;;;;;16.78;70.13;101425.59;5074115;28;20103;-37
2023/06/09 02:10:36;;;;;;;6.30;3.25;;;;;;;16.70;70.39;101422.22;5074653;28;20036;-37
2023/06/09 02:13:15;;;;;;;6.45;2.97;;;;;;;16.61;70.20;101410.13;5074343;28;20021;-37
2023/06/09 02:15:45;;;;;;;7.78;3.90;;;;;;;16.55;70.43;101416.63;5074026;28;20059;-37
2023/06/09 02:18:11;;;;;;;6.93;2.75;;;;;;;16.65;70.37;101413.16;5073940;28;20052;-37
2023/06/09 02:20:42;;;;;;;7.53;3.58;;;;;;;16.62;70.51;101411.75;5073600;28;20066;-37
2023/06/09 02:23:07;;;;;;;6.70;3.25;;;;;;;16.48;71.23;101400.41;5074205;28;20078;-37
2023/06/09 02:25:33;;;;;;;;;;;;;;;16.62;70.21;101413.66;5074649;28;20376;-37
2023/06/09 02:28:01;;;;;;;6.97;2.97;;;;;;;16.35;71.71;101409.03;5073586;28;19958;-37
2023/06/09 02:30:26;;;;;;;6.10;3.08;;;;;;;16.35;72.27;101414.50;5074431;28;20056;-37
2023/06/09 02:32:52;;;;;;;;;;;;;;;16.52;69.63;101414.38;5074531;28;20055;-37
2023/06/09 02:35:17;;;;;;;9.43;3.00;;;;;;;16.40;72.08;101417.28;5073827;28;19908;-37
2023/06/09 02:37:42;;;;;;;;;;;;;;;16.43;70.59;101405.00;5073872;28;20832;-37
2023/06/09 02:40:09;;;;;;;8.10;3.20;;;;;;;16.22;72.19;101404.78;5073913;28;19920;-37
2023/06/09 02:42:34;;;;;;;6.35;3.42;;;;;;;16.19;72.81;101416.19;5073635;28;20301;-37
2023/06/09 02:45:00;;;;;;;;;;;;;;;16.34;71.10;101407.34;5073791;28;20472;-37
2023/06/09 02:47:25;;;;;;;8.25;3.83;;;;;;;16.12;73.11;101409.28;5074190;28;19908;-37
2023/06/09 02:49:51;;;;;;;;;;;;;;;16.31;71.64;101423.44;5073992;28;20024;-37
2023/06/09 02:52:16;;;;;;;7.13;3.40;;;;;;;16.10;72.92;101411.44;5073594;28;20351;-37
2023/06/09 02:54:41;;;;;;;;;;;;;;;16.24;72.33;101418.16;5074014;28;20115;-37
2023/06/09 02:57:07;;;;;;;5.63;3.30;;;;;;;16.13;74.33;101411.75;5073268;28;20012;-37
2023/06/09 02:59:32;;;;;;;;;;;;;;;16.18;71.56;101414.56;5073733;28;20040;-37
2023/06/09 03:01:57;;;;;;;7.63;3.58;;;;;;;16.10;73.78;101409.53;5074363;28;19917;-37
2023/06/09 03:04:23;;;;;;;;;;;;;;;16.20;71.55;101406.09;5074126;28;20469;-37
2023/06/09 03:06:50;;;;;;;5.97;3.33;;;;;;;15.98;74.08;101408.84;5073428;28;20295;-37
2023/06/09 03:09:16;;;;;;;6.63;2.90;;;;;;;15.96;74.31;101405.56;5073391;28;20086;-37
2023/06/09 03:11:41;;;;;;;;;;;;;;;16.15;72.52;101417.81;5073523;28;20028;-37
2023/06/09 03:14:08;;;;;;;5.70;3.13;;;;;;;15.86;74.06;101411.69;5073112;28;19919;-37
2023/06/09 03:16:34;;;;;;;9.68;3.28;;;;;;;15.84;74.79;101402.09;5073343;28;20262;-37
2023/06/09 03:19:00;;;;;;;;;;;;;;;16.01;72.70;101416.53;5073693;28;20040;-37
2023/06/09 03:21:25;;;;;;;6.68;3.40;;;;;;;15.85;75.32;101414.66;5073273;28;19947;-37
2023/06/09 03:23:50;;;;;;;;;;;;;;;15.93;74.08;101423.25;5073964;28;20028;-37
2023/06/09 03:26:17;;;;;;;9.30;4.90;;;;;;;15.72;75.85;101423.22;5073275;28;19912;-37
2023/06/09 03:28:43;;;;;;;8.52;3.80;;;;;;;15.61;76.21;101420.28;5073185;28;20033;-37
2023/06/09 03:31:08;;;;;;;;;;;;;;;15.78;73.91;101417.59;5073616;28;20392;-37
2023/06/09 03:33:33;;;;;;;7.73;3.50;;;;;;;15.72;75.69;101418.59;5073127;28;19919;-37
2023/06/09 03:35:59;;;;;;;;;;;;;;;15.84;74.41;101421.19;5073926;28;20266;-37
2023/06/09 03:38:24;;;;;;;10.00;3.50;;;;;;;15.67;75.78;101424.78;5073121;28;19920;-37
2023/06/09 03:40:49;;;;;;;;;;;;;;;15.87;74.15;101417.97;5074006;28;20282;-37
2023/06/09 03:43:15;;;;;;;8.25;3.95;;;;;;;15.63;76.21;101411.88;5073364;28;20318;-37
2023/06/09 03:45:40;;;;;;;;;;;;;;;15.78;73.77;101422.22;5073897;28;20060;-37
2023/06/09 03:48:06;;;;;;;7.70;3.50;;;;;;;15.49;76.78;101418.75;5077048;28;20284;-37
2023/06/09 03:50:32;;;;;;;9.82;3.65;;;;;;;15.57;76.60;101419.16;5076514;28;20726;-37
2023/06/09 03:52:57;;;;;;;;;;;;;;;15.69;75.22;101433.53;5077715;28;20040;-37
2023/06/09 03:55:24;;;;;;;7.73;4.07;;;;;;;15.44;77.44;101424.97;5076296;28;19927;-37
2023/06/09 03:57:50;;;;;;;7.65;3.28;;;;;;;15.46;78.14;101442.69;5076828;28;20284;-37
2023/06/09 04:00:16;;;;;;;;;;;;;;;15.59;75.83;101438.81;5078078;28;20045;-37
2023/06/09 04:02:41;;;;;;;10.10;3.55;;;;;;;15.46;78.49;101439.16;5076165;28;19912;-37
2023/06/09 04:05:07;;;;;;;;;;;;;;;15.59;77.32;101429.81;5077014;28;20020;-37
2023/06/09 04:07:32;;;;;;;10.70;3.30;;;;;;;15.34;79.09;101425.63;5076433;28;19955;-37
2023/06/09 04:09:58;;;;;;;;;;;;;;;15.43;77.74;101434.22;5076882;28;20098;-37
2023/06/09 04:12:23;;;;;;;9.77;3.67;;;;;;;15.31;79.98;101441.63;5076320;28;20371;-37
2023/06/09 04:14:48;;;;;;;;;;;;;;;15.40;78.34;101440.16;5077098;28;20281;-37
2023/06/09 04:17:14;;;;;;;7.80;3.40;;;;;;;15.25;79.55;101435.28;5076343;28;19912;-37
2023/06/09 04:19:39;;;;;;;10.40;4.20;;;;;;;15.36;80.39;101444.44;5076729;28;20285;-37
2023/06/09 04:22:07;;;;;;;5.95;3.50;;;;;;;15.35;80.36;101450.97;5077107;28;20482;-37
2023/06/09 04:24:32;;;;;;;9.75;4.07;;;;;;;15.26;80.38;101442.38;5076348;28;20475;-37
2023/06/09 04:26:58;;;;;;;;;;;;;;;15.43;78.68;101442.38;5076586;28;20020;-37
2023/06/09 04:29:25;;;;;;;9.18;4.18;;;;;;;15.44;79.91;101441.31;5076034;28;19908;-37
2023/06/09 04:31:58;;;;;;;6.88;3.60;;;;;;;15.49;80.38;101444.13;5076593;28;20032;-37
2023/06/09 04:34:25;;;;;;;10.32;4.20;;;;;;;15.39;79.80;101446.69;5076548;28;20020;-37
2023/06/09 04:36:52;;;;;;;8.00;3.95;;;;;;;15.56;79.86;101444.75;5076526;28;20379;-37
2023/06/09 04:39:19;;;;;;;9.88;3.80;;;;;;;15.57;79.57;101446.44;5076056;28;20035;-37
2023/06/09 04:41:47;;;;;;;10.25;4.13;;;;;;;15.64;80.29;101441.66;5075834;28;20115;-37
2023/06/09 04:44:13;;;;;;;10.50;3.90;;;;;;;15.61;79.50;101450.28;5076579;28;20367;-37
2023/06/09 04:46:39;;;;;;;;;;;;;;;15.85;78.21;101458.28;5075551;28;20063;-37
2023/06/09 04:49:10;;;;;;;7.60;3.50;;;;;;;15.64;79.38;101443.56;5075676;28;19924;-37
2023/06/09 04:51:46;;;;;;;10.88;4.05;;;;;;;15.68;79.86;101459.16;5075670;28;20554;-37
2023/06/09 04:54:13;;;;;;;9.88;3.47;;;;;;;15.77;79.92;101456.84;5075901;28;20099;-37
2023/06/09 04:56:40;;;;;;;9.20;4.30;;;;;;;15.85;79.53;101450.13;5075238;28;20036;-37
2023/06/09 04:59:06;;;;;;;7.03;4.07;;;;;;;15.87;79.09;101440.63;5075665;28;20049;-37
2023/06/09 05:01:33;;;;;;;;;;;;;;;16.12;78.00;101461.94;5075630;28;20029;-37
2023/06/09 05:03:59;;;;;;;8.50;4.10;;;;;;;15.98;78.84;101451.66;5075442;28;19930;-37
2023/06/09 05:06:25;;;;;;;7.57;3.67;;;;;;;15.90;79.36;101458.38;5075951;28;20451;-37
2023/06/09 05:08:51;;;;;;;;;;;;;;;16.17;78.21;101459.28;5075768;28;20048;-37
2023/06/09 05:11:16;;;;;;;10.65;4.55;;;;;;;16.17;78.89;101453.00;5075267;28;19908;-38
2023/06/09 05:13:42;;;;;;;;;;;;;;;16.42;77.59;101460.69;5075391;28;20074;-37
2023/06/09 05:16:07;;;;;;;13.33;5.10;;;;;;;16.12;79.25;101464.69;5075489;28;19923;-37
2023/06/09 05:18:32;;;;;;;;;;;;;;;16.45;77.92;101454.72;5075231;28;20354;-37
2023/06/09 05:20:58;;;;;;;9.73;4.40;;;;;;;16.54;79.00;101452.34;5075864;28;19916;-37
2023/06/09 05:23:23;;;;;;;;;;;;;;;16.58;77.90;101459.78;5076058;28;20281;-37
2023/06/09 05:25:49;;;;;;;8.90;4.90;;;;;;;16.52;78.80;101458.06;5074986;28;19912;-37
2023/06/09 05:28:14;;;;;;;9.32;4.28;;;;;;;16.59;80.26;101458.72;5074823;28;20393;-37
2023/06/09 05:30:40;;;;;;;;;;;;;;;16.65;78.48;101463.13;5075333;28;20479;-37
2023/06/09 05:33:06;;;;;;;10.15;4.35;;;;;;;16.70;78.89;101446.81;5075259;28;19908;-38
2023/06/09 05:35:32;;;;;;;10.98;4.95;;;;;;;16.73;79.05;101470.88;5074485;28;20021;-38
2023/06/09 05:37:57;;;;;;;10.02;5.03;;;;;;;16.98;79.24;101461.31;5074908;28;20025;-37
2023/06/09 05:40:23;;;;;;;;;;;;;;;17.14;78.17;101459.56;5074445;28;20016;-37
2023/06/09 05:42:49;;;;;;;10.97;4.67;;;;;;;17.16;79.38;101451.91;5073983;28;19917;-37
2023/06/09 05:45:15;;;;;;;9.40;5.18;;;;;;;17.18;79.05;101456.03;5074260;28;20263;-37
2023/06/09 05:47:41;;;;;;;8.70;4.68;;;;;;;17.17;78.86;101461.75;5074221;28;20032;-37
2023/06/09 05:50:06;;;;;;;;;;;;;;;17.21;78.35;101466.44;5074394;28;20032;-37
2023/06/09 05:52:31;;;;;;;7.80;4.45;;;;;;;17.36;78.82;101459.44;5074118;28;20268;-37
2023/06/09 05:54:57;;;;;;;14.40;5.45;;;;;;;17.24;78.25;101462.38;5074127;28;20491;-37
2023/06/09 05:57:22;;;;;;;;;;;;;;;17.40;77.89;101461.41;5074734;28;20028;-37
2023/06/09 05:59:47;;;;;;;12.38;5.68;;;;;;;17.42;79.19;101461.13;5074113;28;20022;-37
2023/06/09 06:02:13;;;;;;;;;;;;;;;17.56;78.29;101458.78;5074388;28;20029;-37
2023/06/09 06:04:39;;;;;;;12.23;5.03;;;;;;;17.55;78.51;101466.16;5074580;28;19912;-37
2023/06/09 06:07:04;;;;;;;11.43;5.47;;;;;;;17.56;78.63;101462.34;5074349;28;20055;-38
2023/06/09 06:09:30;;;;;;;10.45;5.50;;;;;;;17.58;78.82;101454.72;5073455;28;20033;-37
2023/06/09 06:11:56;;;;;;;;;;;;;;;17.79;78.00;101452.94;5073855;28;20479;-37
2023/06/09 06:14:21;;;;;;;11.77;5.82;;;;;;;17.82;79.25;101454.34;5073681;28;19915;-37
2023/06/09 06:16:46;;;;;;;;;;;;;;;17.89;77.80;101455.75;5074663;28;20036;-37
2023/06/09 06:19:13;;;;;;;12.73;6.37;;;;;;;17.73;78.56;101456.75;5073945;28;20355;-37
2023/06/09 06:21:41;;;;;;;10.60;4.82;;;;;;;17.93;79.45;101456.03;5073931;28;20263;-37
2023/06/09 06:24:06;;;;;;;10.43;5.65;;;;;;;17.97;78.34;101446.22;5074088;28;20028;-37
2023/06/09 06:26:32;;;;;;;10.55;5.15;;;;;;;18.04;78.72;101446.78;5074720;28;20028;-37
2023/06/09 06:28:57;;;;;;;11.77;5.93;;;;;;;18.04;78.51;101446.78;5074077;28;20424;-37
2023/06/09 06:31:22;;;;;;;;;;;;;;;18.33;77.78;101460.88;5074556;28;20028;-37
2023/06/09 06:33:48;;;;;;;7.85;5.10;;;;;;;18.42;78.28;101452.97;5073540;28;19935;-37
2023/06/09 06:36:14;;;;;;;;;;;;;;;18.58;77.72;101462.88;5074582;28;20031;-37
2023/06/09 06:38:39;;;;;;;9.95;5.88;;;;;;;18.60;76.78;101463.44;5073714;28;19915;-37
2023/06/09 06:41:05;;;;;;;9.27;5.82;;;;;;;18.61;76.06;101456.06;5073375;28;20029;-37
2023/06/09 06:43:30;;;;;;;;;;;;;;;18.83;75.63;101464.88;5074124;28;20016;-37
2023/06/09 06:45:55;;;;;;;9.27;5.57;;;;;;;18.86;75.22;101456.13;5074031;28;19967;-37
2023/06/09 06:48:21;;;;;;;;;;;;;;;19.03;75.23;101464.94;5074066;28;20263;-37
2023/06/09 06:50:46;;;;;;;11.20;5.82;;;;;;;19.06;75.10;101463.56;5073901;28;19908;-37
2023/06/09 06:53:12;;;;;;;11.30;5.97;;;;;;;19.09;74.12;101454.81;5073530;28;20498;-37
2023/06/09 06:55:37;;;;;;;10.48;6.00;;;;;;;19.20;74.65;101453.69;5074119;28;20491;-37
2023/06/09 06:58:02;;;;;;;10.65;5.78;;;;;;;19.34;75.06;101455.91;5073585;28;20426;-37
2023/06/09 07:00:28;;;;;;;10.93;5.95;;;;;;;19.36;74.91;101453.69;5074641;28;20139;-38
2023/06/09 07:02:53;;;;;;;12.57;6.25;;;;;;;19.41;74.27;101451.75;5073734;28;20056;-37
2023/06/09 07:05:19;;;;;;;9.38;5.60;;;;;;;19.49;74.02;101453.97;5073451;28;20396;-37
2023/06/09 07:07:45;;;;;;;10.43;6.18;;;;;;;19.50;73.56;101455.59;5073393;28;20064;-37
2023/06/09 07:10:11;;;;;;;12.02;6.70;;;;;;;19.37;72.89;101447.09;5073734;28;20169;-37
2023/06/09 07:12:37;;;;;;;11.73;5.90;;;;;;;19.58;74.47;101448.75;5073044;28;20024;-37
2023/06/09 07:15:03;;;;;;;10.80;5.63;;;;;;;19.74;74.09;101455.88;5073753;28;20020;-37
2023/06/09 07:17:28;;;;;;;10.80;5.93;;;;;;;19.71;73.25;101464.66;5073339;28;20036;-37
2023/06/09 07:19:54;;;;;;;13.63;5.72;;;;;;;19.63;72.71;101454.25;5073503;28;20028;-37
2023/06/09 07:22:20;;;;;;;13.32;6.28;;;;;;;19.74;72.74;101444.09;5077364;28;20031;-37
2023/06/09 07:24:46;;;;;;;9.85;6.10;;;;;;;19.93;72.47;101455.28;5078147;28;20445;-37
2023/06/09 07:27:11;;;;;;;10.20;6.72;;;;;;;20.12;73.33;101455.50;5077785;28;20379;-37
2023/06/09 07:29:37;;;;;;;10.15;6.30;;;;;;;20.25;72.75;101454.88;5077431;28;20039;-37
2023/06/09 07:32:03;;;;;;;13.52;6.90;;;;;;;20.10;70.87;101450.28;5077158;28;20033;-37
2023/06/09 07:34:31;;;;;;;8.88;6.43;;;;;;;20.26;73.18;101454.63;5077029;28;20028;-37
2023/06/09 07:36:59;;;;;;;10.88;5.95;;;;;;;20.25;71.10;101449.38;5077285;28;20024;-37
2023/06/09 07:39:25;;;;;;;9.75;6.32;;;;;;;20.45;70.66;101454.00;5076840;28;20086;-36
2023/06/09 07:41:50;;;;;;;9.70;5.47;;;;;;;20.54;71.28;101449.56;5077729;28;20059;-37
2023/06/09 07:44:16;;;;;;;14.88;6.38;;;;;;;20.67;70.62;101448.94;5076794;28;20380;-37
2023/06/09 07:46:41;;;;;;;13.48;6.65;;;;;;;20.81;69.90;101455.44;5077344;28;20115;-37
2023/06/09 07:49:07;;;;;;;14.57;6.47;;;;;;;20.85;70.29;101460.38;5076818;28;20036;-37
2023/06/09 07:51:36;;;;;;;10.32;6.35;;;;;;;20.97;69.42;101458.09;5077024;28;20090;-37
2023/06/09 07:54:04;;;;;;;9.05;6.22;;;;;;;21.14;69.24;101442.03;5076665;28;20028;-37
2023/06/09 07:56:29;;;;;;;14.30;7.03;;;;;;;21.14;68.29;101453.03;5077231;28;20418;-37
2023/06/09 07:58:54;;;;;;;10.48;6.72;;;;;;;21.22;67.92;101455.13;5076576;28;20037;-37
2023/06/09 08:01:20;;;;;;;12.20;6.80;;;;;;;21.27;68.49;101452.34;5076853;28;20029;-37
2023/06/09 08:03:45;;;;;;;9.30;6.70;;;;;;;21.48;66.71;101458.53;5076622;28;20025;-37
2023/06/09 08:06:10;;;;;;;8.77;6.20;;;;;;;21.57;67.00;101447.72;5076805;28;20368;-37
2023/06/09 08:08:37;;;;;;;11.90;5.75;;;;;;;21.74;68.24;101441.78;5076108;28;20079;-37
2023/06/09 08:11:02;;;;;;;13.93;6.38;;;;;;;21.91;67.00;101435.78;5076302;28;20035;-37
2023/06/09 08:13:28;;;;;;;11.20;5.72;;;;;;;22.06;66.28;101436.44;5076238;28;20029;-37
2023/06/09 08:15:53;;;;;;;13.23;6.60;;;;;;;22.08;63.73;101434.22;5076873;28;20024;-37
2023/06/09 08:18:19;;;;;;;8.38;5.40;;;;;;;22.33;64.90;101435.03;5076244;28;20029;-37
2023/06/09 08:20:44;;;;;;;8.10;5.15;;;;;;;22.44;63.06;101439.28;5076751;28;20028;-37
2023/06/09 08:23:10;;;;;;;10.15;6.45;;;;;;;22.47;63.56;101444.22;5076157;28;20027;-37
2023/06/09 08:25:35;;;;;;;16.13;7.03;;;;;;;22.54;63.98;101435.56;5076750;28;20081;-37
2023/06/09 08:28:01;;;;;;;10.75;5.70;;;;;;;22.74;63.20;101434.44;5076891;28;20451;-37
2023/06/09 08:30:27;;;;;;;8.88;5.50;;;;;;;22.82;62.70;101436.53;5076315;28;20032;-37
2023/06/09 08:32:52;;;;;;;8.32;5.68;;;;;;;22.93;62.11;101428.97;5075546;28;20158;-38
2023/06/09 08:35:18;;;;;;;9.57;5.88;;;;;;;22.98;62.75;101424.19;5076606;28;20118;-37
2023/06/09 08:37:44;;;;;;;10.38;6.28;;;;;;;23.11;61.12;101439.16;5076259;28;20031;-37
2023/06/09 08:40:09;;;;;;;10.25;6.28;;;;;;;23.10;61.05;101423.72;5076190;28;20025;-37
2023/06/09 08:42:36;;;;;;;9.00;6.20;;;;;;;23.21;61.51;101433.47;5075874;28;20028;-37
2023/06/09 08:45:04;;;;;;;8.40;5.55;;;;;;;23.41;61.00;101426.78;5075834;28;20074;-37
2023/06/09 08:47:31;;;;;;;8.27;5.43;;;;;;;23.47;60.24;101427.50;5076338;28;20376;-37
2023/06/09 08:49:57;;;;;;;9.50;6.07;;;;;;;23.54;59.11;101430.69;5075724;28;20043;-37
2023/06/09 08:52:27;;;;;;;9.82;6.70;;;;;;;23.56;60.14;101428.44;5076010;28;20527;-37
2023/06/09 08:54:56;;;;;;;8.88;5.90;;;;;;;23.73;60.21;101428.72;5075635;28;20039;-37
2023/06/09 08:57:23;;;;;;;7.70;5.63;;;;;;;23.78;57.85;101433.31;5076177;28;20032;-37
2023/06/09 08:59:50;;;;;;;10.50;5.63;;;;;;;23.77;57.92;101424.22;5076009;28;20251;-37
2023/06/09 09:02:16;;;;;;;10.90;5.55;;;;;;;24.11;59.60;101423.81;5075239;28;20056;-37
2023/06/09 09:04:42;;;;;;;6.43;5.60;;;;;;;24.10;57.32;101419.38;5075499;28;20060;-37
2023/06/09 09:07:08;;;;;;;9.77;6.30;;;;;;;24.07;57.00;101417.25;5076003;28;20025;-37
2023/06/09 09:09:34;;;;;;;9.02;5.38;;;;;;;24.35;57.12;101418.03;5075879;28;20089;-37
2023/06/09 09:12:01;;;;;;;8.65;5.05;;;;;;;24.42;56.80;101417.63;5075390;28;20414;-37
2023/06/09 09:14:26;;;;;;;8.60;5.80;;;;;;;24.50;54.93;101416.06;5074965;28;20455;-36
2023/06/09 09:16:52;;;;;;;8.18;5.22;;;;;;;24.50;55.59;101419.69;5075179;28;20103;-37
2023/06/09 09:19:28;;;;;;;8.50;6.03;;;;;;;24.41;55.28;101416.00;5074785;28;20032;-37
2023/06/09 09:21:55;;;;;;;9.88;5.18;;;;;;;24.46;54.44;101412.31;5075939;28;20059;-37
2023/06/09 09:24:29;;;;;;;8.68;5.22;;;;;;;24.65;55.36;101411.03;5074926;28;20064;-37
2023/06/09 09:26:58;;;;;;;8.40;5.63;;;;;;;24.66;54.78;101400.78;5074928;28;20029;-38
2023/06/09 09:29:28;;;;;;;8.52;5.25;;;;;;;24.61;54.42;101412.78;5075294;28;20349;-37
2023/06/09 09:32:02;;;;;;;13.55;6.00;;;;;;;24.69;54.76;101404.84;5075057;28;20047;-37
2023/06/09 09:34:34;;;;;;;8.63;5.70;;;;;;;24.77;54.32;101401.34;5075113;28;20399;-37
2023/06/09 09:37:01;;;;;;;8.98;5.70;;;;;;;25.12;53.40;101394.13;5074542;28;20469;-37
2023/06/09 09:39:26;;;;;;;9.55;5.50;;;;;;;25.26;53.20;101386.56;5074296;28;20036;-38
2023/06/09 09:42:10;;;;;;;7.38;4.82;;;;;;;25.49;52.32;101398.44;5075241;28;20028;-37
2023/06/09 09:44:40;;;;;;;8.07;5.30;;;;;;;25.48;52.81;101399.56;5073846;28;20028;-37
2023/06/09 09:47:08;;;;;;;11.95;4.70;;;;;;;25.67;51.93;101397.38;5074571;28;20032;-37
2023/06/09 09:49:34;;;;;;;8.73;5.22;;;;;;;25.82;52.28;101393.41;5075044;28;20169;-38
2023/06/09 09:51:59;;;;;;;5.45;4.15;;;;;;;26.06;50.56;101378.28;5074731;28;20029;-37
2023/06/09 09:54:28;;;;;;;7.15;5.10;;;;;;;26.17;49.86;101390.72;5074396;28;20080;-37
2023/06/09 09:56:57;;;;;;;8.60;5.13;;;;;;;26.23;49.30;101389.41;5075564;28;20029;-37
2023/06/09 09:59:25;;;;;;;5.15;4.20;;;;;;;26.37;49.04;101392.84;5074337;28;20468;-38
2023/06/09 10:01:51;;;;;;;7.00;5.22;;;;;;;26.12;47.21;101396.41;5074546;28;20060;-37
2023/06/09 10:04:22;;;;;;;11.93;4.80;;;;;;;26.16;47.60;101392.66;5074213;28;20028;-37
2023/06/09 10:06:53;;;;;;;6.63;4.65;;;;;;;26.16;48.22;101386.31;5075047;28;20028;-37
2023/06/09 10:09:23;;;;;;;7.10;5.03;;;;;;;26.25;48.22;101397.38;5074716;28;20040;-37
2023/06/09 10:11:51;;;;;;;7.72;5.00;;;;;;;26.55;48.08;101385.41;5075014;28;20033;-37
2023/06/09 10:14:16;;;;;;;5.57;4.28;;;;;;;26.76;47.30;101382.78;5073753;28;20029;-37
2023/06/09 10:16:44;;;;;;;5.80;4.38;;;;;;;26.81;46.64;101374.28;5073996;28;20082;-37
2023/06/09 10:19:10;;;;;;;6.93;4.65;;;;;;;26.83;47.34;101383.09;5073899;28;20021;-37
2023/06/09 10:21:36;;;;;;;4.85;4.20;;;;;;;26.74;46.43;101379.50;5073873;28;20419;-37
2023/06/09 10:24:04;;;;;;;12.10;4.00;;;;;;;27.17;44.90;101373.09;5073830;28;20028;-37
2023/06/09 10:26:30;;;;;;;6.80;3.88;;;;;;;27.08;44.52;101384.22;5073527;28;20082;-37
2023/06/09 10:28:55;;;;;;;5.22;3.75;;;;;;;27.30;43.92;101374.06;5073750;28;20414;-38
2023/06/09 10:31:22;;;;;;;5.25;3.92;;;;;;;27.02;43.77;101374.41;5074261;28;20028;-38
2023/06/09 10:33:48;;;;;;;7.30;3.92;;;;;;;27.12;44.33;101373.28;5073685;28;20025;-38
2023/06/09 10:36:15;;;;;;;6.28;3.83;;;;;;;27.15;44.72;101361.53;5074032;28;20052;-38
2023/06/09 10:38:43;;;;;;;7.95;5.07;;;;;;;27.24;42.75;101370.66;5073610;28;20048;-38
2023/06/09 10:41:15;;;;;;;5.22;3.47;;;;;;;27.35;43.64;101368.31;5073780;28;20040;-38
2023/06/09 10:44:02;;;;;;;4.32;3.65;;;;;;;27.49;43.65;101360.59;5073735;28;20464;-38
2023/06/09 10:46:43;;;;;;;10.25;3.72;;;;;;;27.60;43.52;101366.59;5074134;28;20021;-38
2023/06/09 10:49:24;;;;;;;6.28;3.83;;;;;;;27.75;44.23;101354.94;5073577;28;20029;-38
2023/06/09 10:51:49;;;;;;;4.05;2.97;;;;;;;27.95;41.95;101345.81;5074121;28;20033;-38
2023/06/09 10:54:15;;;;;;;4.97;2.90;;;;;;;28.13;40.14;101343.75;5073304;28;20028;-38
2023/06/09 10:56:42;;;;;;;3.72;2.78;;;;;;;28.12;39.37;101355.22;5073406;28;20036;-38
2023/06/09 10:59:30;;;;;;;5.80;2.92;;;;;;;28.37;39.66;101343.09;5073181;28;20045;-37
2023/06/09 11:02:01;;;;;;;5.15;3.03;;;;;;;28.28;40.03;101333.97;5069893;28;20396;-37
2023/06/09 11:04:43;;;;;;;5.78;2.92;;;;;;;28.38;38.76;101322.47;5073215;28;20062;-38
2023/06/09 11:07:18;;;;;;;4.72;2.67;;;;;;;28.45;38.55;101342.22;5073993;28;20036;-38
2023/06/09 11:09:47;;;;;;;4.40;2.67;;;;;;;28.44;37.40;101318.31;5074111;28;20024;-38
2023/06/09 11:12:28;;;;;;;4.88;2.63;;;;;;;28.64;38.70;101324.19;5073687;28;20036;-37
2023/06/09 11:15:01;;;;;;;6.22;3.00;;;;;;;28.55;37.71;101323.47;5073712;28;20028;-38
2023/06/09 11:17:42;;;;;;;4.15;3.22;;;;;;;28.68;39.24;101333.50;5073135;28;20440;-38
2023/06/09 11:20:11;;;;;;;7.55;3.03;;;;;;;28.87;38.26;101325.44;5073868;28;20174;-38
2023/06/09 11:22:46;;;;;;;6.90;2.78;;;;;;;28.81;37.74;101326.84;5074060;28;20415;-38
2023/06/09 11:25:14;;;;;;;6.72;2.97;;;;;;;28.69;36.61;101318.44;5073815;28;20024;-38
2023/06/09 11:27:40;;;;;;;4.03;2.63;;;;;;;28.85;37.16;101327.78;5073525;28;20021;-38
2023/06/09 11:30:23;;;;;;;3.78;3.15;;;;;;;28.96;37.32;101322.63;5073151;28;20033;-38
2023/06/09 11:33:05;;;;;;;4.00;2.65;;;;;;;28.73;37.17;101317.41;5072800;28;20037;-37
2023/06/09 11:35:30;;;;;;;4.47;2.65;;;;;;;28.90;37.46;101322.00;5073917;28;20028;-37